Time;durP1;ratioP1;P1;durP2;ratioP2;P2;SDS_P1;SDS_P2;PMS_P1;PMS_P2;Temp;Humidity;BMP_temperature;BMP_pressure;BME280_temperature;BME280_humidity;BME280_pressure;Samples;Min_cycle;Max_cycle;Signal;HPM_P1;HPM_P2
2022/04/07 00:02:19;;;;;;;9.17;6.13;;;;;;;10.36;58.08;96416.38;6182767;23;20488;-90
2022/04/07 00:04:46;;;;;;;6.63;5.53;;;;;;;10.38;58.80;96443.84;6210934;23;20187;-87
2022/04/07 00:07:13;;;;;;;8.47;5.40;;;;;;;10.01;59.81;96448.47;6209687;23;20165;-85
2022/04/07 00:09:41;;;;;;;6.37;5.27;;;;;;;9.71;60.78;96438.81;6183437;23;20576;-83
2022/04/07 00:12:08;;;;;;;8.20;5.20;;;;;;;9.96;60.48;96448.69;6210165;23;20170;-86
2022/04/07 00:14:37;;;;;;;8.63;4.93;;;;;;;9.96;60.39;96425.41;6182177;23;20170;-84
2022/04/07 00:17:04;;;;;;;7.27;5.57;;;;;;;10.39;59.63;96455.03;6210476;23;20165;-85
2022/04/07 00:19:31;;;;;;;7.70;5.73;;;;;;;10.38;59.76;96448.19;6208973;23;20193;-87
2022/04/07 00:21:59;;;;;;;6.70;5.03;;;;;;;10.28;59.41;96415.97;6218925;23;20173;-84
2022/04/07 00:24:27;;;;;;;8.73;5.83;;;;;;;10.01;60.08;96405.31;6227687;23;20181;-84
2022/04/07 00:26:55;;;;;;;7.23;5.40;;;;;;;10.25;59.91;96444.59;6214620;23;20170;-84
2022/04/07 00:29:22;;;;;;;8.83;5.30;;;;;;;10.05;59.88;96399.06;6210650;23;20167;-83
2022/04/07 00:31:56;;;;;;;7.00;5.80;;;;;;;10.25;59.72;96435.06;6183513;23;20205;-86
2022/04/07 00:34:24;;;;;;;6.27;5.30;;;;;;;10.27;59.70;96429.81;6182604;23;20174;-86
2022/04/07 00:36:53;;;;;;;9.27;5.70;;;;;;;10.05;59.53;96393.06;6206724;23;20530;-84
2022/04/07 00:39:20;;;;;;;7.00;5.33;;;;;;;10.13;59.84;96401.25;6183502;23;20533;-85
2022/04/07 00:41:47;;;;;;;8.70;5.70;;;;;;;10.20;59.79;96418.16;6182049;23;20158;-86
2022/04/07 00:44:16;;;;;;;6.67;5.87;;;;;;;10.25;59.68;96393.69;6209949;23;20249;-85
2022/04/07 00:46:45;;;;;;;7.93;6.23;;;;;;;10.21;59.88;96405.13;6210267;23;20161;-85
2022/04/07 00:49:16;;;;;;;10.50;6.30;;;;;;;9.94;59.43;96370.34;6182243;23;20165;-86
2022/04/07 00:51:44;;;;;;;6.87;5.83;;;;;;;9.93;60.08;96380.78;6202627;23;20247;-85
2022/04/07 00:54:12;;;;;;;7.93;5.77;;;;;;;9.80;60.30;96360.75;6238831;23;20159;-85
2022/04/07 00:56:40;;;;;;;8.17;5.83;;;;;;;10.07;60.41;96406.75;6221261;23;20170;-85
2022/04/07 00:59:08;;;;;;;7.67;5.40;;;;;;;10.07;60.44;96394.66;6214736;23;20926;-85
2022/04/07 01:01:35;;;;;;;12.43;6.00;;;;;;;10.05;59.38;96387.88;6211355;23;20622;-86
2022/04/07 01:04:04;;;;;;;7.80;5.50;;;;;;;9.92;59.57;96366.16;6208484;23;20193;-84
2022/04/07 01:06:31;;;;;;;8.67;6.50;;;;;;;9.55;61.28;96395.72;6209752;23;20229;-85
2022/04/07 01:08:59;;;;;;;8.53;6.17;;;;;;;9.75;61.16;96387.75;6183902;23;20179;-85
2022/04/07 01:11:29;;;;;;;8.53;6.40;;;;;;;9.37;61.48;96363.94;6208358;23;20194;-89
2022/04/07 01:13:56;;;;;;;7.37;6.20;;;;;;;9.28;62.57;96348.91;6210874;23;20161;-89
2022/04/07 01:16:27;;;;;;;7.90;5.67;;;;;;;9.34;61.75;96317.56;6209042;23;20547;-91
2022/04/07 01:18:59;;;;;;;8.00;5.80;;;;;;;9.92;61.30;96372.19;6209727;23;20166;-89
2022/04/07 01:21:28;;;;;;;7.77;5.60;;;;;;;9.89;60.63;96367.19;6183763;23;20166;-91
2022/04/07 01:24:10;;;;;;;8.93;5.83;;;;;;;9.78;61.08;96362.59;6208890;23;20166;-87
2022/04/07 01:26:43;;;;;;;11.13;6.07;;;;;;;9.63;62.29;96368.56;6209724;23;20176;-89
2022/04/07 01:29:13;;;;;;;9.33;6.97;;;;;;;9.69;61.90;96370.81;6216404;23;20154;-87
2022/04/07 01:31:43;;;;;;;10.83;6.40;;;;;;;9.74;61.36;96355.91;6207128;23;20162;-89
2022/04/07 01:34:17;;;;;;;9.50;6.37;;;;;;;10.01;60.85;96378.63;6192124;23;20695;-89
2022/04/07 01:36:46;;;;;;;8.17;6.50;;;;;;;9.82;60.15;96329.63;6218001;23;20165;-88
2022/04/07 01:39:18;;;;;;;8.67;6.50;;;;;;;9.22;61.32;96307.88;6213250;23;20189;-89
2022/04/07 01:41:45;;;;;;;8.13;6.13;;;;;;;9.95;61.02;96378.94;6210865;23;20167;-91
2022/04/07 01:44:13;;;;;;;8.83;6.47;;;;;;;9.92;60.37;96366.16;6214171;23;20174;-89
2022/04/07 01:46:40;;;;;;;9.87;7.20;;;;;;;9.56;60.53;96325.84;6212054;23;20169;-88
2022/04/07 01:49:08;;;;;;;9.43;6.73;;;;;;;9.45;61.09;96342.84;6214621;23;20182;-90
2022/04/07 01:51:37;;;;;;;8.70;6.80;;;;;;;9.09;62.00;96379.16;6211513;23;20248;-90
2022/04/07 01:54:11;;;;;;;12.17;7.67;;;;;;;8.53;62.78;96335.50;6209448;23;20196;-90
2022/04/07 01:56:40;;;;;;;11.03;7.50;;;;;;;8.26;64.12;96326.53;6185253;23;20158;-89
2022/04/07 01:59:08;;;;;;;10.37;7.00;;;;;;;8.08;65.29;96364.31;6208589;23;20193;-90
2022/04/07 02:01:36;;;;;;;9.43;7.67;;;;;;;7.56;67.47;96352.16;6210727;23;20166;-90
2022/04/07 02:04:04;;;;;;;11.73;8.20;;;;;;;7.49;69.05;96348.16;6187476;23;20197;-85
2022/04/07 02:06:32;;;;;;;12.10;8.47;;;;;;;7.10;69.24;96293.28;6210493;23;20237;-85
2022/04/07 02:09:00;;;;;;;10.83;7.67;;;;;;;7.17;69.66;96282.63;6207240;23;20174;-84
2022/04/07 02:11:28;;;;;;;10.77;7.93;;;;;;;7.70;67.86;96299.97;6208057;23;20657;-86
2022/04/07 02:13:55;;;;;;;10.10;7.07;;;;;;;8.07;67.57;96325.72;6183697;23;20165;-88
2022/04/07 02:16:22;;;;;;;9.63;7.50;;;;;;;8.23;66.75;96318.91;6210284;23;20164;-91
2022/04/07 02:18:50;;;;;;;9.43;6.87;;;;;;;8.51;65.67;96314.09;6210549;23;20162;-91
2022/04/07 02:21:17;;;;;;;11.70;7.53;;;;;;;8.55;64.62;96283.84;6210488;23;20169;-85
2022/04/07 02:23:44;;;;;;;9.60;7.70;;;;;;;8.84;64.89;96290.97;6210735;23;20625;-89
2022/04/07 02:26:18;;;;;;;12.33;6.83;;;;;;;8.93;64.11;96290.47;6211097;23;20166;-90
2022/04/07 02:28:45;;;;;;;9.77;6.77;;;;;;;8.95;63.75;96265.41;6211510;23;20166;-90
2022/04/07 02:31:12;;;;;;;9.60;6.63;;;;;;;9.07;63.28;96267.34;6212107;23;20162;-85
2022/04/07 02:33:39;;;;;;;8.57;6.87;;;;;;;9.25;62.67;96258.66;6182926;23;20233;-84
2022/04/07 02:36:09;;;;;;;10.30;7.30;;;;;;;9.21;62.98;96245.97;6211709;23;20547;-85
2022/04/07 02:38:36;;;;;;;9.57;7.20;;;;;;;9.39;62.27;96257.91;6157871;23;20525;-84
2022/04/07 02:41:04;;;;;;;10.40;7.40;;;;;;;9.17;62.22;96232.38;6211650;23;20194;-85
2022/04/07 02:43:31;;;;;;;9.73;7.10;;;;;;;9.16;62.09;96256.53;6210721;23;20165;-84
2022/04/07 02:45:58;;;;;;;10.10;7.23;;;;;;;8.89;63.28;96261.41;6159365;23;20510;-85
2022/04/07 02:48:25;;;;;;;11.07;7.67;;;;;;;8.50;63.81;96198.06;6211156;23;20180;-85
2022/04/07 02:50:52;;;;;;;10.13;8.00;;;;;;;8.69;63.54;96234.94;6182269;23;20166;-86
2022/04/07 02:53:19;;;;;;;10.73;7.70;;;;;;;8.29;64.48;96179.34;6211569;23;20225;-85
2022/04/07 02:55:46;;;;;;;10.50;7.40;;;;;;;8.12;65.23;96218.00;6208991;23;20165;-85
2022/04/07 02:58:13;;;;;;;10.33;7.37;;;;;;;8.21;65.77;96231.31;6211363;23;20162;-85
2022/04/07 03:00:40;;;;;;;9.33;7.60;;;;;;;7.98;66.09;96212.69;6185654;23;20195;-91
2022/04/07 03:03:08;;;;;;;10.87;7.80;;;;;;;7.97;66.84;96193.00;6197533;23;20166;-87
2022/04/07 03:05:38;;;;;;;9.70;7.23;;;;;;;8.08;66.30;96204.44;6185461;23;20163;-90
2022/04/07 03:08:12;;;;;;;11.13;8.40;;;;;;;7.93;67.11;96192.28;6210625;23;20194;-91
2022/04/07 03:10:41;;;;;;;11.97;8.10;;;;;;;8.10;66.81;96191.47;6185951;23;20217;-90
2022/04/07 03:13:08;;;;;;;12.33;8.07;;;;;;;8.41;65.94;96203.72;6210241;23;20162;-88
2022/04/07 03:15:35;;;;;;;13.77;8.00;;;;;;;8.53;65.66;96200.50;6185803;23;20245;-85
2022/04/07 03:18:03;;;;;;;12.43;7.50;;;;;;;8.48;65.81;96195.56;6221704;23;20174;-87
2022/04/07 03:20:31;;;;;;;11.10;7.47;;;;;;;8.33;65.73;96159.38;6222123;23;20206;-85
2022/04/07 03:22:59;;;;;;;12.87;8.17;;;;;;;8.61;64.96;96196.63;6214264;23;20224;-85
2022/04/07 03:25:31;;;;;;;13.83;8.83;;;;;;;8.68;65.61;96213.44;6226706;23;20188;-89
2022/04/07 03:27:59;;;;;;;13.77;8.57;;;;;;;8.44;65.39;96203.53;6234991;23;20219;-88
2022/04/07 03:30:27;;;;;;;12.33;7.80;;;;;;;8.58;65.25;96216.56;6236169;23;20162;-89
2022/04/07 03:32:54;;;;;;;16.93;9.50;;;;;;;8.61;65.29;96219.00;6240288;23;20154;-90
2022/04/07 03:35:21;;;;;;;16.27;9.87;;;;;;;8.62;65.16;96226.66;6212956;23;20154;-89
2022/04/07 03:37:49;;;;;;;15.87;9.43;;;;;;;8.54;65.45;96204.75;6239532;23;20158;-89
2022/04/07 03:40:16;;;;;;;17.33;11.37;;;;;;;8.10;67.42;96186.31;6239699;23;20205;-91
2022/04/07 03:42:44;;;;;;;16.80;9.60;;;;;;;8.01;66.99;96185.03;6211903;23;20610;-92
2022/04/07 03:45:12;;;;;;;14.23;9.80;;;;;;;7.43;69.19;96124.34;6211718;23;20165;-92
2022/04/07 03:47:39;;;;;;;12.43;9.00;;;;;;;7.18;69.96;96123.84;6209465;23;20181;-88
2022/04/07 03:50:07;;;;;;;10.60;8.33;;;;;;;7.02;71.10;96148.63;6212194;23;20177;-93
2022/04/07 03:52:37;;;;;;;13.57;9.77;;;;;;;6.69;72.28;96165.59;6210615;23;20190;-91
2022/04/07 03:55:05;;;;;;;12.60;8.97;;;;;;;6.20;72.66;96126.59;6185020;23;20177;-89
2022/04/07 03:57:32;;;;;;;12.37;8.60;;;;;;;6.35;73.24;96140.53;6210355;23;20643;-92
2022/04/07 03:59:59;;;;;;;10.87;8.67;;;;;;;6.50;72.33;96132.16;6229333;23;20220;-88
2022/04/07 04:02:27;;;;;;;12.60;9.03;;;;;;;6.85;71.38;96110.81;6192602;23;20238;-90
2022/04/07 04:04:54;;;;;;;15.27;8.87;;;;;;;6.84;70.09;96041.41;6207495;23;20164;-85
2022/04/07 04:07:21;;;;;;;13.63;9.10;;;;;;;7.57;69.49;96111.63;6184471;23;20515;-89
2022/04/07 04:09:49;;;;;;;13.60;9.77;;;;;;;7.74;67.81;96121.97;6182516;23;20176;-86
2022/04/07 04:12:16;;;;;;;22.10;11.50;;;;;;;7.92;66.49;96117.63;6215749;23;20172;-89
2022/04/07 04:14:43;;;;;;;23.27;12.80;;;;;;;7.91;67.04;96069.56;6219968;23;20183;-84
2022/04/07 04:17:10;;;;;;;23.20;11.70;;;;;;;8.55;65.44;96142.72;6193915;23;20174;-84
2022/04/07 04:19:37;;;;;;;20.47;11.60;;;;;;;8.92;65.25;96162.31;6166051;23;20174;-85
2022/04/07 04:22:05;;;;;;;18.53;11.90;;;;;;;8.66;64.47;96100.88;6211545;23;20588;-89
2022/04/07 04:24:32;;;;;;;18.17;11.90;;;;;;;9.11;64.35;96175.88;6214969;23;20520;-87
2022/04/07 04:27:00;;;;;;;21.60;12.47;;;;;;;9.10;64.43;96153.56;6195310;23;20193;-88
2022/04/07 04:29:27;;;;;;;14.20;10.33;;;;;;;8.86;64.94;96141.97;6238803;23;20162;-88
2022/04/07 04:31:54;;;;;;;16.70;11.43;;;;;;;8.69;64.88;96157.50;6199019;23;20232;-90
2022/04/07 04:34:22;;;;;;;18.80;10.87;;;;;;;8.69;65.15;96142.88;6217054;23;20222;-89
2022/04/07 04:36:49;;;;;;;23.63;13.60;;;;;;;8.65;65.89;96161.16;6216536;23;20190;-86
2022/04/07 04:39:18;;;;;;;21.20;13.37;;;;;;;7.94;67.27;96115.81;6199523;23;20166;-91
2022/04/07 04:41:45;;;;;;;17.10;11.93;;;;;;;7.38;67.66;96085.94;6179788;23;20203;-90
2022/04/07 04:44:14;;;;;;;18.10;10.30;;;;;;;7.43;70.19;96131.25;6210559;23;20252;-88
2022/04/07 04:46:43;;;;;;;16.17;10.80;;;;;;;7.16;70.16;96072.44;6211988;23;20617;-90
2022/04/07 04:49:11;;;;;;;16.30;10.10;;;;;;;7.23;70.85;96111.59;6184420;23;20162;-92
2022/04/07 04:51:38;;;;;;;12.00;9.43;;;;;;;6.87;70.81;96065.25;6212075;23;20187;-90
2022/04/07 04:54:11;;;;;;;13.07;9.17;;;;;;;7.09;71.83;96103.72;6184671;23;20236;-92
2022/04/07 04:56:40;;;;;;;13.60;9.67;;;;;;;6.91;72.24;96082.22;6185081;23;20182;-89
2022/04/07 04:59:08;;;;;;;12.57;9.47;;;;;;;7.18;71.46;96110.97;6222836;23;20189;-93
2022/04/07 05:01:35;;;;;;;12.67;9.47;;;;;;;7.69;70.18;96121.34;6209162;23;20198;-89
2022/04/07 05:04:03;;;;;;;16.13;9.73;;;;;;;7.86;69.59;96092.16;6187168;23;20168;-86
2022/04/07 05:06:30;;;;;;;10.43;8.93;;;;;;;8.33;68.42;96100.06;6214913;23;20238;-93
2022/04/07 05:08:57;;;;;;;22.77;10.33;;;;;;;8.72;66.31;96090.22;6217282;23;20162;-90
2022/04/07 05:11:24;;;;;;;15.53;10.63;;;;;;;9.06;65.44;96092.66;6163149;23;20212;-88
2022/04/07 05:13:52;;;;;;;15.33;10.53;;;;;;;9.03;65.46;96074.75;6187077;23;20237;-86
2022/04/07 05:16:19;;;;;;;15.80;11.43;;;;;;;8.93;65.38;96063.25;6212736;23;20229;-93
2022/04/07 05:18:48;;;;;;;13.47;9.60;;;;;;;9.05;64.84;96065.16;6233314;23;20193;-90
2022/04/07 05:21:16;;;;;;;18.30;10.83;;;;;;;9.26;64.57;96091.53;6223623;23;20197;-88
2022/04/07 05:23:44;;;;;;;12.73;9.53;;;;;;;9.18;65.17;96057.56;6225817;23;20233;-90
2022/04/07 05:26:14;;;;;;;17.57;11.60;;;;;;;9.34;63.69;96058.34;6216284;23;20173;-92
2022/04/07 05:28:43;;;;;;;14.07;9.90;;;;;;;9.14;64.79;96071.56;6183750;23;20817;-91
2022/04/07 05:31:10;;;;;;;11.33;8.43;;;;;;;9.22;64.50;96090.91;6184677;23;20173;-88
2022/04/07 05:33:37;;;;;;;20.03;9.43;;;;;;;9.32;65.10;96102.38;6212139;23;20170;-85
2022/04/07 05:36:05;;;;;;;16.80;11.90;;;;;;;9.35;63.54;96052.28;6210498;23;20185;-92
2022/04/07 05:38:33;;;;;;;19.13;12.23;;;;;;;9.38;64.60;96050.34;6213246;23;20158;-90
2022/04/07 05:41:01;;;;;;;23.70;13.47;;;;;;;9.46;64.35;96047.34;6213957;23;20708;-92
2022/04/07 05:43:28;;;;;;;19.50;12.47;;;;;;;9.45;65.18;96072.34;6190197;23;20174;-92
2022/04/07 05:45:57;;;;;;;29.37;14.23;;;;;;;9.61;65.77;96067.97;6213711;23;20166;-84
2022/04/07 05:48:24;;;;;;;21.97;13.97;;;;;;;9.75;64.67;96065.41;6184496;23;20162;-90
2022/04/07 05:50:53;;;;;;;20.43;13.57;;;;;;;9.81;64.70;96041.78;6237329;23;20162;-88
2022/04/07 05:53:23;;;;;;;17.87;13.00;;;;;;;9.92;63.63;96024.81;6234282;23;20158;-89
2022/04/07 05:55:51;;;;;;;14.33;11.20;;;;;;;9.64;64.26;96026.41;6236162;23;20166;-87
2022/04/07 05:58:21;;;;;;;23.50;13.40;;;;;;;9.47;64.87;96010.25;6237466;22;20154;-89
2022/04/07 06:00:51;;;;;;;15.03;10.83;;;;;;;9.89;63.47;95996.56;6239658;23;20193;-88
2022/04/07 06:03:18;;;;;;;18.87;12.33;;;;;;;10.31;62.38;96002.59;6186596;23;20233;-94
2022/04/07 06:05:52;;;;;;;16.20;11.10;;;;;;;10.68;61.06;96024.44;6212432;23;20158;-90
2022/04/07 06:08:21;;;;;;;14.40;10.57;;;;;;;10.78;61.06;96006.59;6211456;23;20193;-92
2022/04/07 06:10:51;;;;;;;17.57;11.43;;;;;;;10.97;59.48;95982.00;6211982;23;20281;-92
2022/04/07 06:13:18;;;;;;;14.57;9.87;;;;;;;10.71;59.83;96002.69;6186253;23;20568;-90
2022/04/07 06:15:45;;;;;;;29.97;14.60;;;;;;;10.64;59.53;95969.44;6211811;23;20225;-93
2022/04/07 06:18:16;;;;;;;14.37;9.40;;;;;;;10.86;59.21;95994.78;6187380;23;20232;-91
2022/04/07 06:20:47;;;;;;;13.03;9.47;;;;;;;11.04;57.05;95972.06;6187721;23;20201;-93
2022/04/07 06:23:14;;;;;;;12.53;9.50;;;;;;;11.38;57.16;96003.47;6211799;23;20218;-91
2022/04/07 06:25:41;;;;;;;12.20;10.10;;;;;;;11.58;56.68;95993.56;6212865;23;20186;-91
2022/04/07 06:28:12;;;;;;;15.70;10.97;;;;;;;11.45;57.38;95976.22;6160945;23;20191;-93
2022/04/07 06:30:42;;;;;;;18.47;12.40;;;;;;;11.67;56.31;95972.22;6164764;23;20168;-89
2022/04/07 06:33:09;;;;;;;19.30;11.70;;;;;;;11.67;56.57;95948.88;6209495;23;20167;-86
2022/04/07 06:35:36;;;;;;;18.77;11.07;;;;;;;11.70;56.00;95935.72;6184888;23;20166;-89
2022/04/07 06:38:03;;;;;;;16.63;10.53;;;;;;;11.55;55.34;95915.97;6188718;23;20159;-89
2022/04/07 06:40:33;;;;;;;20.03;10.83;;;;;;;11.90;55.25;95964.56;6232066;23;20198;-88
2022/04/07 06:43:06;;;;;;;18.53;10.80;;;;;;;11.83;56.10;95957.31;6205299;23;20191;-87
2022/04/07 06:45:34;;;;;;;22.83;12.60;;;;;;;11.87;56.59;95925.84;6230395;23;20195;-86
2022/04/07 06:48:03;;;;;;;22.63;12.43;;;;;;;12.03;55.08;95925.63;6233265;23;20225;-89
2022/04/07 06:50:31;;;;;;;20.07;13.33;;;;;;;12.16;55.13;95923.81;6205816;23;20226;-87
2022/04/07 06:53:00;;;;;;;23.17;11.30;;;;;;;12.11;54.65;95884.41;6196961;23;20252;-89
2022/04/07 06:55:29;;;;;;;22.83;11.87;;;;;;;12.53;54.22;95922.88;6224362;23;20183;-88
2022/04/07 06:58:08;;;;;;;19.53;11.80;;;;;;;12.28;53.95;95882.25;6205682;23;20182;-92
2022/04/07 07:00:45;;;;;;;22.73;11.50;;;;;;;12.47;54.69;95917.31;6205778;23;20189;-87
2022/04/07 07:03:15;;;;;;;18.20;10.73;;;;;;;12.55;54.40;95917.59;6217712;23;20209;-80
2022/04/07 07:05:44;;;;;;;21.23;10.80;;;;;;;12.70;53.76;95925.13;6223598;23;20223;-91
2022/04/07 07:08:18;;;;;;;20.77;11.67;;;;;;;12.44;54.13;95902.78;6181921;23;20636;-91
2022/04/07 07:10:48;;;;;;;15.83;10.03;;;;;;;12.18;55.37;95927.97;6213580;23;20207;-89
2022/04/07 07:13:20;;;;;;;17.73;10.47;;;;;;;12.38;54.95;95918.81;6184956;23;20251;-85
2022/04/07 07:15:54;;;;;;;18.57;11.20;;;;;;;12.26;54.34;95901.50;6212434;23;20168;-89
2022/04/07 07:18:22;;;;;;;18.00;10.97;;;;;;;12.33;54.61;95939.06;6186603;23;20183;-92
2022/04/07 07:20:51;;;;;;;16.70;10.43;;;;;;;12.41;54.30;95934.16;6210259;23;20672;-90
2022/04/07 07:23:21;;;;;;;15.80;11.00;;;;;;;12.11;54.63;95905.16;6212647;23;20168;-88
2022/04/07 07:25:53;;;;;;;17.07;11.10;;;;;;;11.96;56.33;95909.66;6211792;23;20238;-91
2022/04/07 07:28:24;;;;;;;21.20;10.73;;;;;;;11.71;57.45;95901.03;6212681;23;20221;-90
2022/04/07 07:30:52;;;;;;;19.30;12.57;;;;;;;11.90;56.78;95910.06;6212637;23;20708;-90
2022/04/07 07:33:21;;;;;;;19.10;13.03;;;;;;;11.74;56.80;95890.47;6188937;23;20176;-93
2022/04/07 07:35:51;;;;;;;19.50;13.00;;;;;;;11.99;55.68;95908.63;6188066;23;20256;-89
2022/04/07 07:38:22;;;;;;;19.00;13.60;;;;;;;11.75;57.75;95892.13;6214796;23;20612;-91
2022/04/07 07:40:50;;;;;;;17.73;13.23;;;;;;;11.50;57.13;95866.19;6186356;23;20687;-91
2022/04/07 07:43:17;;;;;;;26.03;15.37;;;;;;;11.71;57.54;95862.97;6210857;23;20641;-91
2022/04/07 07:45:50;;;;;;;22.57;13.60;;;;;;;11.93;57.96;95875.31;6213659;23;20174;-91
2022/04/07 07:48:26;;;;;;;19.20;12.53;;;;;;;11.94;58.14;95851.84;6211300;23;20175;-93
2022/04/07 07:50:53;;;;;;;19.70;13.23;;;;;;;12.34;58.92;95883.63;6208846;23;20182;-88
2022/04/07 07:53:22;;;;;;;17.50;12.03;;;;;;;12.28;58.04;95865.88;6212877;23;20167;-93
2022/04/07 07:55:49;;;;;;;18.13;11.73;;;;;;;11.85;58.29;95841.28;6187723;23;20159;-92
2022/04/07 07:58:17;;;;;;;20.60;12.30;;;;;;;11.67;59.38;95863.28;6214308;23;20174;-91
2022/04/07 08:00:47;;;;;;;15.97;11.93;;;;;;;11.70;58.87;95853.56;6211900;23;20189;-94
2022/04/07 08:03:16;;;;;;;17.13;11.87;;;;;;;12.00;58.91;95859.19;6184769;23;20175;-90
2022/04/07 08:05:47;;;;;;;21.43;12.63;;;;;;;12.16;58.16;95835.56;6185293;23;20181;-89
2022/04/07 08:08:16;;;;;;;17.77;12.30;;;;;;;12.27;57.55;95825.28;6210518;23;20220;-88
2022/04/07 08:10:43;;;;;;;17.67;13.17;;;;;;;12.68;57.19;95845.63;6182809;23;20490;-90
2022/04/07 08:13:14;;;;;;;22.03;14.10;;;;;;;12.65;55.40;95805.13;6177691;23;20180;-87
2022/04/07 08:15:43;;;;;;;16.90;11.07;;;;;;;13.08;54.22;95832.22;6205966;23;20609;-88
2022/04/07 08:18:11;;;;;;;18.30;12.73;;;;;;;13.19;53.07;95789.00;6182571;23;20259;-89
2022/04/07 08:20:40;;;;;;;32.53;16.53;;;;;;;13.43;52.43;95800.97;6184775;23;20176;-87
2022/04/07 08:23:07;;;;;;;19.80;12.03;;;;;;;13.47;53.37;95805.00;6184548;23;20180;-88
2022/04/07 08:25:35;;;;;;;15.27;9.77;;;;;;;13.24;50.30;95797.28;6210982;23;20688;-88
2022/04/07 08:28:04;;;;;;;18.77;10.70;;;;;;;13.41;50.57;95778.63;6185024;23;20236;-88
2022/04/07 08:30:34;;;;;;;19.30;11.57;;;;;;;13.83;50.34;95762.25;6210253;23;20184;-89
2022/04/07 08:33:03;;;;;;;15.07;9.93;;;;;;;14.24;48.98;95748.56;6184953;23;20269;-92
2022/04/07 08:35:30;;;;;;;19.53;10.10;;;;;;;14.70;47.43;95780.34;6211045;23;20181;-88
2022/04/07 08:38:01;;;;;;;17.83;9.13;;;;;;;14.72;46.64;95743.75;6214430;23;20272;-93
2022/04/07 08:40:29;;;;;;;12.13;8.50;;;;;;;14.53;45.65;95737.44;6212200;23;20242;-90
2022/04/07 08:42:58;;;;;;;16.83;9.70;;;;;;;14.78;43.73;95744.06;6184823;23;20176;-90
2022/04/07 08:45:31;;;;;;;15.87;8.33;;;;;;;14.76;43.47;95737.31;6185879;23;20166;-91
2022/04/07 08:48:02;;;;;;;16.27;8.03;;;;;;;15.16;42.85;95746.09;6210562;23;20165;-91
2022/04/07 08:50:34;;;;;;;11.93;6.77;;;;;;;15.44;41.75;95750.63;6160282;23;20174;-92
2022/04/07 08:53:02;;;;;;;15.33;8.77;;;;;;;15.06;41.93;95711.31;6204596;23;20170;-90
2022/04/07 08:55:30;;;;;;;14.37;9.10;;;;;;;15.16;43.28;95739.09;6234721;23;20158;-87
2022/04/07 08:57:59;;;;;;;11.30;6.87;;;;;;;14.55;44.16;95696.47;6201367;23;20602;-91
2022/04/07 09:00:31;;;;;;;17.17;8.60;;;;;;;15.39;43.12;95711.84;6197862;23;20640;-90
2022/04/07 09:03:01;;;;;;;11.13;7.17;;;;;;;15.25;42.51;95656.63;6215171;23;20201;-90
2022/04/07 09:05:31;;;;;;;13.27;7.17;;;;;;;15.39;42.12;95659.69;6231861;23;20158;-91
2022/04/07 09:07:59;;;;;;;10.87;5.77;;;;;;;15.63;40.89;95692.47;6224366;23;20198;-93
2022/04/07 09:10:29;;;;;;;9.47;6.30;;;;;;;15.38;41.24;95667.66;6172067;23;20198;-88
2022/04/07 09:13:04;;;;;;;9.30;5.47;;;;;;;15.30;39.92;95690.97;6213752;23;20177;-87
2022/04/07 09:15:32;;;;;;;11.37;6.60;;;;;;;15.44;39.86;95657.53;6211526;23;20392;-92
2022/04/07 09:18:00;;;;;;;8.77;6.20;;;;;;;15.29;40.16;95663.25;6184658;23;20185;-92
2022/04/07 09:20:29;;;;;;;14.13;6.90;;;;;;;15.54;40.72;95680.25;6189771;23;20193;-90
2022/04/07 09:22:59;;;;;;;8.90;5.60;;;;;;;15.24;39.59;95634.94;6183744;23;20641;-91
2022/04/07 09:25:29;;;;;;;7.50;5.50;;;;;;;15.14;40.03;95634.09;6185338;23;20166;-92
2022/04/07 09:28:00;;;;;;;9.13;6.27;;;;;;;15.03;40.38;95610.72;6210915;23;20581;-92
2022/04/07 09:30:37;;;;;;;15.10;6.07;;;;;;;15.23;40.77;95654.13;6184294;23;20705;-90
2022/04/07 09:33:05;;;;;;;7.97;5.73;;;;;;;14.64;41.30;95609.72;6209419;23;20170;-89
2022/04/07 09:35:32;;;;;;;14.70;7.13;;;;;;;14.97;41.52;95623.44;6210835;23;20177;-89
2022/04/07 09:38:02;;;;;;;9.90;6.90;;;;;;;15.14;40.58;95615.00;6211033;23;20181;-92
2022/04/07 09:40:31;;;;;;;13.20;6.20;;;;;;;15.28;40.63;95630.28;6184027;23;20174;-92
2022/04/07 09:42:59;;;;;;;12.93;7.20;;;;;;;14.83;40.67;95592.53;6211332;23;20677;-92
2022/04/07 09:45:28;;;;;;;11.63;6.60;;;;;;;14.81;41.11;95599.66;6211044;23;20166;-91
2022/04/07 09:48:18;;;;;;;12.47;6.93;;;;;;;14.54;41.67;95603.66;6209917;23;20162;-94
2022/04/07 09:51:03;;;;;;;11.77;6.40;;;;;;;14.29;42.55;95614.47;6209504;23;20255;-92
2022/04/07 09:53:36;;;;;;;16.63;7.97;;;;;;;14.16;43.05;95605.13;6184343;23;20174;-93
2022/04/07 09:56:05;;;;;;;9.77;6.40;;;;;;;14.31;43.15;95604.72;6209178;23;20170;-91
2022/04/07 09:58:35;;;;;;;11.33;6.10;;;;;;;14.40;42.46;95593.56;6212536;23;20169;-91
2022/04/07 10:01:06;;;;;;;21.07;9.40;;;;;;;14.58;42.32;95605.03;6210350;23;20219;-92
2022/04/07 10:03:35;;;;;;;14.27;6.57;;;;;;;14.49;41.95;95597.97;6210357;23;20613;-90
2022/04/07 10:06:02;;;;;;;12.10;6.13;;;;;;;14.63;41.81;95597.63;6208539;23;20162;-89
2022/04/07 10:08:31;;;;;;;11.23;6.23;;;;;;;14.29;42.23;95564.97;6185042;23;20661;-91
2022/04/07 10:10:59;;;;;;;12.43;7.37;;;;;;;14.72;41.55;95590.00;6181195;23;20201;-92
2022/04/07 10:13:30;;;;;;;13.80;7.50;;;;;;;14.33;41.72;95537.72;6159390;23;20245;-89
2022/04/07 10:15:58;;;;;;;14.10;5.77;;;;;;;14.66;41.45;95566.13;6213976;23;20162;-93
2022/04/07 10:18:36;;;;;;;12.30;6.40;;;;;;;14.51;41.84;95582.22;6209733;23;20158;-88
2022/04/07 10:21:07;;;;;;;11.47;7.00;;;;;;;14.37;41.95;95566.94;6234317;23;20159;-87
2022/04/07 10:23:49;;;;;;;11.77;6.70;;;;;;;14.68;42.46;95568.59;6204251;23;20259;-86
2022/04/07 10:26:21;;;;;;;10.57;6.67;;;;;;;14.82;41.84;95557.00;6179144;23;20162;-91
2022/04/07 10:28:56;;;;;;;9.27;6.03;;;;;;;14.79;41.27;95546.81;6212384;23;20163;-91
2022/04/07 10:31:26;;;;;;;10.03;5.60;;;;;;;14.69;41.56;95546.81;6210298;23;20203;-88
2022/04/07 10:34:06;;;;;;;8.27;5.57;;;;;;;14.78;41.44;95547.78;6162240;23;20590;-89
2022/04/07 10:36:43;;;;;;;11.73;6.90;;;;;;;14.70;41.70;95522.38;6211304;23;20172;-90
2022/04/07 10:39:13;;;;;;;10.37;5.80;;;;;;;14.94;41.02;95546.31;6185721;23;20719;-90
2022/04/07 10:41:47;;;;;;;7.27;5.47;;;;;;;14.89;41.81;95571.97;6210333;23;20276;-90
2022/04/07 10:44:21;;;;;;;8.73;5.53;;;;;;;14.75;42.04;95561.09;6187147;23;20224;-90
2022/04/07 10:46:50;;;;;;;10.93;5.43;;;;;;;14.75;41.63;95579.31;6185818;23;20585;-91
2022/04/07 10:49:24;;;;;;;8.93;5.80;;;;;;;14.69;41.85;95573.66;6211378;23;20224;-90
2022/04/07 10:52:02;;;;;;;8.77;4.80;;;;;;;14.68;41.69;95563.38;6187458;23;20720;-89
2022/04/07 10:54:30;;;;;;;7.37;4.80;;;;;;;14.53;41.87;95557.69;6214610;23;20162;-87
2022/04/07 10:57:01;;;;;;;8.30;5.70;;;;;;;14.54;41.85;95535.06;6186730;23;20178;-90
2022/04/07 10:59:35;;;;;;;10.07;5.47;;;;;;;14.40;42.03;95512.81;6216795;23;20166;-89
2022/04/07 11:02:12;;;;;;;8.73;5.30;;;;;;;14.62;42.21;95509.19;6186202;23;20717;-90
2022/04/07 11:04:57;;;;;;;10.30;5.33;;;;;;;14.85;42.27;95528.88;6187252;23;20185;-90
2022/04/07 11:07:25;;;;;;;7.83;5.60;;;;;;;14.81;41.99;95527.50;6211552;23;20168;-92
2022/04/07 11:09:58;;;;;;;7.77;4.93;;;;;;;14.53;41.63;95487.34;6213486;23;20631;-92
2022/04/07 11:12:33;;;;;;;10.73;6.50;;;;;;;14.52;42.45;95470.09;6214333;23;20161;-89
2022/04/07 11:15:01;;;;;;;9.47;4.97;;;;;;;14.47;42.29;95508.72;6186161;23;20169;-87
2022/04/07 11:17:32;;;;;;;7.80;4.97;;;;;;;14.38;42.48;95488.69;6187160;23;20197;-91
2022/04/07 11:20:18;;;;;;;8.50;5.20;;;;;;;14.46;43.85;95491.47;6183633;23;20220;-87
2022/04/07 11:22:56;;;;;;;9.33;5.77;;;;;;;14.43;44.42;95483.91;6187341;23;20554;-90
2022/04/07 11:25:34;;;;;;;10.87;5.63;;;;;;;14.06;44.60;95445.47;6215932;23;20166;-91
2022/04/07 11:28:15;;;;;;;12.57;9.30;;;;;;;14.45;45.36;95486.34;6213176;23;20240;-90
2022/04/07 11:30:46;;;;;;;8.53;5.73;;;;;;;14.48;45.99;95481.72;6184703;23;20173;-91
2022/04/07 11:33:26;;;;;;;8.43;5.47;;;;;;;14.58;45.74;95476.53;6210825;23;20520;-90
2022/04/07 11:36:06;;;;;;;8.40;5.23;;;;;;;14.69;44.97;95477.25;6213654;23;20244;-91
2022/04/07 11:38:37;;;;;;;8.87;4.87;;;;;;;14.62;44.41;95444.88;6212677;23;20632;-91
2022/04/07 11:41:06;;;;;;;7.53;4.60;;;;;;;14.90;43.68;95468.53;6184875;23;20158;-90